Latest Weather Observations for Nambour

IDQ60801

Issued at 5:02 pm EST Friday 6 May 2016 (issued every 30 minutes, with the page automatically refreshed every 10 minutes)

About weather observations | Map of weather stations | Latest weather observations for QLD | Other Formats
Station Details ID: 040988 Name: NAMBOUR DAFF - HILLSIDE Lat: -26.64 Lon: 152.94 Height: 53.24 m
Data from the previous 72 hours. | See also: Recent months at Nambour
Date/Time
EST
Temp
°C
App
Temp
°C
Dew
Point
Rel
Hum
%
Delta-T
°C
Wind Press
QNH
hPa
Press
MSL
hPa
Rain
since 9 am
mm
Dir
 
Spd
km/h
Gust
km/h
Spd
kts
Gust
kts
06/05:00pm 21.7 23.9 16.6 73 3.1 CALM 0 0 0 0 1017.9 1017.8 0.0
06/04:30pm 22.6 24.8 16.4 68 3.8 CALM 0 2 0 1 1017.4 1017.3 0.0
06/04:00pm 23.4 24.6 16.0 63 4.5 ENE 4 6 2 3 1017.3 1017.2 0.0
06/03:30pm 24.1 24.9 14.8 56 5.5 ESE 4 9 2 5 1017.3 1017.2 0.0
06/03:00pm 25.0 25.4 15.3 55 5.8 E 7 11 4 6 1017.3 1017.2 0.0
06/02:30pm 25.3 25.5 14.7 51 6.3 E 7 13 4 7 1017.2 1017.1 0.0
06/02:00pm 24.5 24.7 14.3 53 6.0 ESE 6 13 3 7 1017.2 1017.1 0.0
06/01:30pm 26.1 26.3 14.6 49 6.9 ENE 7 15 4 8 1017.2 1017.1 0.0
06/01:00pm 25.4 25.3 13.9 49 6.8 E 7 13 4 7 1017.5 1017.4 0.0
06/12:30pm 24.4 25.1 14.5 54 5.9 ESE 4 6 2 3 1018.1 1018.0 0.0
06/12:00pm 24.6 24.7 14.4 53 6.0 E 7 11 4 6 1018.4 1018.3 0.0
06/11:30am 25.6 27.1 16.7 58 5.5 NE 4 9 2 5 1018.9 1018.8 0.0
06/11:00am 24.7 25.7 16.4 60 5.1 E 6 13 3 7 1019.3 1019.2 0.0
06/10:30am 24.8 26.8 17.8 65 4.4 SSE 4 9 2 5 1019.8 1019.7 0.0
06/10:00am 23.8 25.2 17.3 67 4.0 ESE 6 13 3 7 1019.7 1019.6 0.0
06/09:30am 23.2 24.5 17.2 69 3.7 ESE 6 9 3 5 1019.9 1019.8 0.0
06/09:00am 22.9 24.5 17.8 73 3.2 E 6 9 3 5 1020.0 1019.9 0.2
06/08:30am 21.8 24.7 19.0 84 1.8 NE 2 6 1 3 1020.0 1019.9 0.2
06/08:00am 19.4 22.2 17.9 91 0.9 CALM 0 0 0 0 1019.7 1019.6 0.2
06/07:30am 17.6 20.0 17.0 96 0.4 CALM 0 0 0 0 1019.4 1019.3 0.2
06/07:00am 16.3 18.2 15.8 97 0.3 CALM 0 4 0 2 1019.0 1018.9 0.2
06/06:30am 15.7 17.4 15.2 97 0.3 CALM 0 0 0 0 1018.9 1018.8 0.2
06/06:00am 15.4 17.0 14.9 97 0.3 CALM 0 0 0 0 1018.5 1018.4 0.0
06/05:30am 15.2 16.7 14.7 97 0.3 CALM 0 0 0 0 1018.0 1017.9 0.0
06/05:00am 15.2 16.7 14.7 97 0.3 CALM 0 0 0 0 1017.9 1017.8 0.0
06/04:30am 15.4 17.0 14.9 97 0.3 CALM 0 0 0 0 1018.0 1017.9 0.0
06/04:00am 15.4 17.0 14.9 97 0.3 CALM 0 0 0 0 1017.9 1017.8 0.0
06/03:30am 15.7 17.4 15.2 97 0.3 CALM 0 0 0 0 1017.8 1017.7 0.0
06/03:00am 15.5 17.1 15.0 97 0.3 CALM 0 0 0 0 1017.9 1017.8 0.0
06/02:30am 15.3 16.8 14.7 96 0.3 CALM 0 0 0 0 1017.8 1017.7 0.0
06/02:00am 15.6 17.2 15.0 96 0.3 CALM 0 0 0 0 1018.1 1018.0 0.0
06/01:30am 15.9 17.6 15.3 96 0.3 CALM 0 0 0 0 1018.4 1018.3 0.0
06/01:00am 16.0 17.8 15.4 96 0.3 CALM 0 0 0 0 1018.6 1018.5 0.0
06/12:30am 15.8 17.4 15.0 95 0.5 CALM 0 0 0 0 1018.7 1018.6 0.0
06/12:00am 15.9 17.6 15.1 95 0.5 CALM 0 0 0 0 1018.9 1018.8 0.0
 
Date/Time
EST
Temp
°C
App
Temp
°C
Dew
Point
Rel
Hum
%
Delta-T
°C
Wind Press
QNH
hPa
Press
MSL
hPa
Rain
since 9 am
mm
Dir
 
Spd
km/h
Gust
km/h
Spd
kts
Gust
kts
05/11:30pm 16.6 18.6 16.0 96 0.4 CALM 0 0 0 0 1019.0 1018.9 0.0
05/11:00pm 16.5 18.4 15.7 95 0.5 CALM 0 0 0 0 1019.2 1019.1 0.0
05/10:30pm 16.6 18.5 15.8 95 0.5 CALM 0 0 0 0 1019.4 1019.3 0.0
05/10:00pm 16.6 18.4 15.6 94 0.6 CALM 0 0 0 0 1019.6 1019.5 0.0
05/09:30pm 17.0 19.0 16.0 94 0.6 CALM 0 0 0 0 1019.6 1019.5 0.0
05/09:00pm 17.4 19.6 16.4 94 0.6 CALM 0 0 0 0 1019.7 1019.6 0.0
05/08:30pm 17.5 19.7 16.4 93 0.7 CALM 0 0 0 0 1019.8 1019.7 0.0
05/08:00pm 17.7 19.9 16.4 92 0.8 CALM 0 0 0 0 1019.7 1019.6 0.0
05/07:30pm 18.4 20.8 16.9 91 0.9 CALM 0 0 0 0 1019.4 1019.3 0.0
05/07:00pm 18.3 20.1 15.6 84 1.6 CALM 0 0 0 0 1019.2 1019.1 0.0
05/06:30pm 18.9 20.7 15.6 81 2.0 CALM 0 0 0 0 1018.8 1018.7 0.0
05/06:00pm 19.6 21.5 15.7 78 2.3 CALM 0 0 0 0 1018.4 1018.3 0.0
05/05:30pm 20.8 22.7 15.8 73 3.0 CALM 0 0 0 0 1018.2 1018.1 0.0
05/05:00pm 22.2 23.7 15.8 67 3.8 SE 2 4 1 2 1018.0 1017.9 0.0
05/04:30pm 22.7 23.8 15.5 64 4.3 SE 4 6 2 3 1017.9 1017.8 0.0
05/04:00pm 24.5 25.2 16.0 59 5.2 E 7 11 4 6 1017.7 1017.6 0.0
05/03:30pm 23.7 24.3 15.2 59 5.1 ESE 6 13 3 7 1017.8 1017.7 0.0
05/03:00pm 23.7 24.6 15.2 59 5.1 SE 4 9 2 5 1017.8 1017.7 0.0
05/02:30pm 24.4 25.2 15.9 59 5.2 ESE 6 9 3 5 1017.7 1017.6 0.0
05/02:00pm 24.3 24.8 15.0 56 5.6 ESE 6 7 3 4 1017.7 1017.6 0.0
05/01:30pm 24.8 25.7 15.1 54 5.8 ESE 4 7 2 4 1017.7 1017.6 0.0
05/01:00pm 24.7 24.7 14.2 52 6.2 ESE 7 11 4 6 1018.0 1017.9 0.0
05/12:30pm 25.6 25.8 14.7 51 6.5 E 7 11 4 6 1018.4 1018.3 0.0
05/12:00pm 25.8 26.4 15.2 52 6.4 E 6 13 3 7 1018.9 1018.8 0.0
05/11:30am 25.2 25.9 15.5 55 5.9 ESE 6 15 3 8 1019.4 1019.3 0.0
05/11:00am 25.2 26.1 16.1 57 5.6 SSE 6 11 3 6 1019.8 1019.7 0.0
05/10:30am 24.3 24.9 15.8 59 5.2 SE 7 17 4 9 1020.0 1019.9 0.0
05/10:00am 24.4 25.6 16.9 63 4.6 ESE 6 13 3 7 1020.3 1020.2 0.0
05/09:30am 23.7 24.6 16.5 64 4.4 ESE 7 13 4 7 1020.5 1020.4 0.0
05/09:00am 23.6 25.3 17.1 67 4.0 ESE 4 7 2 4 1020.6 1020.5 0.0
05/08:30am 22.5 24.1 17.0 71 3.4 E 4 6 2 3 1020.5 1020.4 0.0
05/08:00am 20.1 22.7 17.5 85 1.6 CALM 0 0 0 0 1020.3 1020.2 0.0
05/07:30am 17.7 19.9 16.6 93 0.7 CALM 0 0 0 0 1019.8 1019.7 0.0
05/07:00am 16.1 17.9 15.5 96 0.3 CALM 0 0 0 0 1019.6 1019.5 0.0
05/06:30am 15.4 17.0 14.9 97 0.3 CALM 0 4 0 2 1019.3 1019.2 0.0
05/06:00am 15.4 17.0 14.8 96 0.3 CALM 0 0 0 0 1018.9 1018.8 0.0
05/05:30am 14.9 16.3 14.3 96 0.3 CALM 0 0 0 0 1018.5 1018.4 0.0
05/05:00am 15.5 17.1 15.0 97 0.3 CALM 0 0 0 0 1018.2 1018.1 0.0
05/04:30am 15.2 16.7 14.6 96 0.3 CALM 0 0 0 0 1018.0 1017.9 0.0
05/04:00am 15.1 16.5 14.5 96 0.3 CALM 0 0 0 0 1017.7 1017.6 0.0
05/03:30am 15.3 16.8 14.7 96 0.3 CALM 0 0 0 0 1017.7 1017.6 0.0
05/03:00am 15.1 16.5 14.3 95 0.5 CALM 0 0 0 0 1017.5 1017.4 0.0
05/02:30am 15.8 17.5 15.2 96 0.3 CALM 0 0 0 0 1017.5 1017.4 0.0
05/02:00am 15.5 17.0 14.7 95 0.5 CALM 0 0 0 0 1017.7 1017.6 0.0
05/01:30am 15.9 17.6 15.3 96 0.3 CALM 0 0 0 0 1017.8 1017.7 0.0
05/01:00am 15.6 17.2 14.8 95 0.5 CALM 0 0 0 0 1018.0 1017.9 0.0
05/12:30am 15.8 17.4 15.0 95 0.5 CALM 0 0 0 0 1018.2 1018.1 0.0
05/12:00am 15.7 17.2 14.6 93 0.6 CALM 0 0 0 0 1018.4 1018.3 0.0
 
Date/Time
EST
Temp
°C
App
Temp
°C
Dew
Point
Rel
Hum
%
Delta-T
°C
Wind Press
QNH
hPa
Press
MSL
hPa
Rain
since 9 am
mm
Dir
 
Spd
km/h
Gust
km/h
Spd
kts
Gust
kts
04/11:30pm 15.8 17.3 14.7 93 0.6 CALM 0 0 0 0 1018.7 1018.6 0.0
04/11:00pm 16.1 17.8 15.1 94 0.6 CALM 0 0 0 0 1018.8 1018.7 0.0
04/10:30pm 16.1 17.7 14.8 92 0.7 CALM 0 0 0 0 1018.9 1018.8 0.0
04/10:00pm 16.2 17.8 14.9 92 0.7 CALM 0 0 0 0 1019.0 1018.9 0.0
04/09:30pm 16.4 18.0 14.9 91 0.9 CALM 0 0 0 0 1019.0 1018.9 0.0
04/09:00pm 16.4 17.6 13.9 85 1.4 CALM 0 0 0 0 1018.9 1018.8 0.0
04/08:30pm 16.6 17.8 13.7 83 1.6 CALM 0 0 0 0 1018.8 1018.7 0.0
04/08:00pm 16.8 17.9 13.5 81 1.9 CALM 0 0 0 0 1018.6 1018.5 0.0
04/07:30pm 17.2 18.4 13.7 80 2.0 CALM 0 0 0 0 1018.2 1018.1 0.0
04/07:00pm 17.4 18.6 13.7 79 2.1 CALM 0 0 0 0 1017.9 1017.8 0.0
04/06:30pm 18.0 19.1 13.5 75 2.6 CALM 0 0 0 0 1017.4 1017.3 0.0
04/06:00pm 18.8 19.7 12.8 68 3.4 CALM 0 0 0 0 1016.9 1016.8 0.0
04/05:30pm 20.4 21.2 12.4 60 4.5 CALM 0 4 0 2 1016.4 1016.3 0.0
04/05:00pm 22.3 22.5 11.7 51 5.9 SE 2 6 1 3 1016.0 1015.9 0.0
04/04:30pm 23.7 22.9 11.1 45 7.0 ESE 6 9 3 5 1015.8 1015.7 0.0
04/04:00pm 24.6 23.8 11.2 43 7.5 ESE 6 13 3 7 1015.4 1015.3 0.0
04/03:30pm 25.0 24.1 11.2 42 7.8 E 7 15 4 8 1015.0 1014.9 0.0
04/03:00pm 25.8 25.5 14.3 49 6.9 ENE 9 15 5 8 1014.6 1014.5 0.0
04/02:30pm 27.2 26.4 8.1 30 10.3 SSE 2 9 1 5 1014.3 1014.2 0.0
04/02:00pm 27.3 26.6 10.1 34 9.6 W 4 7 2 4 1014.2 1014.1 0.0
04/01:30pm 26.9 25.9 8.8 32 9.9 SE 4 11 2 6 1014.1 1014.0 0.0
04/01:00pm 26.6 25.2 9.0 33 9.6 ESE 6 13 3 7 1014.4 1014.3 0.0
04/12:30pm 26.9 25.9 8.8 32 9.9 S 4 9 2 5 1014.7 1014.6 0.0
04/12:00pm 26.2 24.6 8.2 32 9.7 SW 6 13 3 7 1015.1 1015.0 0.0
04/11:30am 25.5 24.1 10.9 40 8.2 SW 9 20 5 11 1015.5 1015.4 0.0
04/11:00am 24.9 23.8 10.8 41 7.9 WSW 7 17 4 9 1016.0 1015.9 0.0
04/10:30am 23.4 22.8 10.5 44 7.1 WSW 4 11 2 6 1016.4 1016.3 0.0
04/10:00am 24.1 24.5 13.6 52 6.1 SSW 4 7 2 4 1017.2 1017.1 0.0
04/09:30am 24.5 25.2 14.6 54 5.9 E 4 7 2 4 1017.1 1017.0 0.0
04/09:00am 23.5 23.7 14.2 56 5.5 NE 6 9 3 5 1016.8 1016.7 0.2
04/08:30am 22.4 24.7 17.8 75 2.9 NE 2 6 1 3 1016.9 1016.8 0.2
04/08:00am 19.6 22.4 17.9 90 1.0 CALM 0 0 0 0 1016.7 1016.6 0.2
04/07:30am 19.2 22.0 18.0 93 0.7 CALM 0 0 0 0 1016.5 1016.4 0.2
04/07:00am 18.8 21.3 17.3 91 0.9 CALM 0 0 0 0 1015.8 1015.7 0.2
04/06:30am 18.9 21.0 17.2 90 1.0 SSE 2 6 1 3 1015.6 1015.5 0.2
04/06:00am 18.7 21.5 17.9 95 0.5 CALM 0 0 0 0 1014.9 1014.8 0.2
04/05:30am 18.6 21.2 17.6 94 0.6 CALM 0 0 0 0 1014.4 1014.3 0.2
04/05:00am 18.5 21.1 17.5 94 0.6 CALM 0 0 0 0 1014.2 1014.1 0.2
04/04:30am 18.6 20.9 17.6 94 0.6 WSW 2 2 1 1 1013.9 1013.8 0.2
04/04:00am 18.7 21.0 17.7 94 0.6 SW 2 4 1 2 1013.6 1013.5 0.2
04/03:30am 18.6 21.2 17.6 94 0.6 CALM 0 0 0 0 1013.3 1013.2 0.2
04/03:00am 18.7 20.9 17.5 93 0.7 SSW 2 4 1 2 1013.3 1013.2 0.2
04/02:30am 18.7 21.3 17.5 93 0.7 CALM 0 0 0 0 1013.2 1013.1 0.2
04/02:00am 19.0 21.8 18.0 94 0.6 CALM 0 0 0 0 1013.3 1013.2 0.2
04/01:30am 19.0 21.8 18.0 94 0.6 CALM 0 0 0 0 1013.5 1013.4 0.2
04/01:00am 19.3 22.2 18.1 93 0.7 CALM 0 0 0 0 1013.6 1013.5 0.2
04/12:30am 19.6 22.8 18.9 96 0.4 CALM 0 0 0 0 1013.6 1013.5 0.2
04/12:00am 19.9 23.2 19.2 96 0.4 CALM 0 0 0 0 1013.8 1013.7 0.2
 
Date/Time
EST
Temp
°C
App
Temp
°C
Dew
Point
Rel
Hum
%
Delta-T
°C
Wind Press
QNH
hPa
Press
MSL
hPa
Rain
since 9 am
mm
Dir
 
Spd
km/h
Gust
km/h
Spd
kts
Gust
kts
03/11:30pm 20.2 23.7 19.5 96 0.4 CALM 0 0 0 0 1013.8 1013.7 0.2
03/11:00pm 20.1 23.5 19.4 96 0.4 CALM 0 0 0 0 1013.8 1013.7 0.2
03/10:30pm 20.1 23.5 19.4 96 0.4 CALM 0 0 0 0 1013.7 1013.6 0.2
03/10:00pm 20.6 24.3 19.9 96 0.4 CALM 0 0 0 0 1013.9 1013.8 0.2
03/09:30pm 20.4 23.9 19.6 95 0.5 CALM 0 0 0 0 1013.9 1013.8 0.2
03/09:00pm 20.7 24.4 19.9 95 0.5 CALM 0 0 0 0 1013.9 1013.8 0.2
03/08:30pm 20.6 24.2 19.8 95 0.5 CALM 0 0 0 0 1013.9 1013.8 0.2
03/08:00pm 20.8 24.4 19.8 94 0.6 CALM 0 0 0 0 1013.8 1013.7 0.2
03/07:30pm 20.9 24.5 19.7 93 0.8 CALM 0 0 0 0 1013.5 1013.4 0.2
03/07:00pm 21.5 25.1 20.5 94 0.6 WSW 2 4 1 2 1013.2 1013.1 0.2
03/06:30pm 21.6 25.4 20.1 91 1.0 CALM 0 0 0 0 1012.8 1012.7 0.2
03/06:00pm 22.1 25.8 20.0 88 1.4 CALM 0 0 0 0 1012.4 1012.2 0.2
03/05:30pm 22.8 26.2 19.4 81 2.2 CALM 0 4 0 2 1012.0 1011.8 0.2

Other Formats:

Comma delimited format used in spreadsheet applications
http://www.bom.gov.au/fwo/IDQ60801/IDQ60801.95572.axf

JavaScript Object Notation format (JSON) in row-major order
http://www.bom.gov.au/fwo/IDQ60801/IDQ60801.95572.json